createdAt,value
2018-12-17T00:00:30.896Z,101125.45
2018-12-17T00:02:58.543Z,101133.97
2018-12-17T00:05:26.096Z,101132.86
2018-12-17T00:07:53.695Z,101138.19
2018-12-17T00:10:21.355Z,101136.75
2018-12-17T00:12:48.971Z,101131.48
2018-12-17T00:15:16.569Z,101129.76
2018-12-17T00:17:44.200Z,101128.08
2018-12-17T00:20:11.798Z,101134.58
2018-12-17T00:22:39.416Z,101126.62
2018-12-17T00:25:07.078Z,101141.66
2018-12-17T00:27:34.706Z,101141.85
2018-12-17T00:30:02.357Z,101141.33
2018-12-17T00:32:30.019Z,101142.64
2018-12-17T00:34:57.590Z,101147.98
2018-12-17T00:37:25.188Z,101145.27
2018-12-17T00:39:52.751Z,101140.89
2018-12-17T00:42:20.728Z,101144.52
2018-12-17T00:44:48.649Z,101147.14
2018-12-17T00:47:16.237Z,101139.42
2018-12-17T00:49:43.786Z,101151.78
2018-12-17T00:52:11.383Z,101145.94
2018-12-17T00:54:38.972Z,101149.63
2018-12-17T00:57:06.706Z,101150.09
2018-12-17T00:59:34.269Z,101147.42
2018-12-17T01:02:01.885Z,101152.86
2018-12-17T01:04:29.487Z,101150.33
2018-12-17T01:06:57.090Z,101147.12
2018-12-17T01:09:24.704Z,101158.05
2018-12-17T01:11:52.622Z,101167.57
2018-12-17T01:14:20.208Z,101169.60
2018-12-17T01:16:47.780Z,101169.84
2018-12-17T01:19:15.373Z,101165.91
2018-12-17T01:21:43.445Z,101165.63
2018-12-17T01:24:11.017Z,101158.69
2018-12-17T01:26:39.067Z,101163.84
2018-12-17T01:29:06.643Z,101165.30
2018-12-17T01:31:34.542Z,101171.67
2018-12-17T01:34:02.122Z,101174.48
2018-12-17T01:36:29.760Z,101175.84
2018-12-17T01:38:57.342Z,101177.16
2018-12-17T01:41:25.224Z,101169.85
2018-12-17T01:43:52.811Z,101175.28
2018-12-17T01:46:20.440Z,101178.75
2018-12-17T01:48:48.023Z,101177.69
2018-12-17T01:51:15.684Z,101173.08
2018-12-17T01:53:43.251Z,101161.36
2018-12-17T01:56:10.901Z,101171.81
2018-12-17T01:58:38.494Z,101170.13
2018-12-17T02:01:06.066Z,101165.48
2018-12-17T02:03:33.663Z,101178.43
2018-12-17T02:06:01.219Z,101180.77
2018-12-17T02:08:29.070Z,101170.97
2018-12-17T02:10:56.626Z,101178.28
2018-12-17T02:13:24.514Z,101175.70
2018-12-17T02:15:52.046Z,101193.25
2018-12-17T02:18:19.646Z,101189.77
2018-12-17T02:20:47.232Z,101193.29
2018-12-17T02:23:14.805Z,101192.97
2018-12-17T02:25:42.416Z,101196.56
2018-12-17T02:28:10.015Z,101195.55
2018-12-17T02:30:37.657Z,101199.33
2018-12-17T02:33:05.327Z,101194.68
2018-12-17T02:35:32.901Z,101210.49
2018-12-17T02:38:00.474Z,101209.14
2018-12-17T02:40:28.174Z,101207.41
2018-12-17T02:42:55.853Z,101204.13
2018-12-17T02:45:23.440Z,101211.81
2018-12-17T02:47:51.005Z,101206.28
2018-12-17T02:50:18.564Z,101207.13
2018-12-17T02:52:46.121Z,101216.09
2018-12-17T02:55:13.686Z,101218.56
2018-12-17T02:57:41.349Z,101217.77
2018-12-17T03:00:09.068Z,101211.31
2018-12-17T03:02:36.644Z,101214.78
2018-12-17T03:05:06.095Z,101215.47
2018-12-17T03:07:33.652Z,101224.56
2018-12-17T03:10:01.216Z,101223.64
2018-12-17T03:12:28.811Z,101228.53
2018-12-17T03:14:56.801Z,101232.27
2018-12-17T03:17:24.675Z,101229.80
2018-12-17T03:19:52.238Z,101225.03
2018-12-17T03:22:20.122Z,101230.56
2018-12-17T03:24:47.746Z,101224.34
2018-12-17T03:27:15.350Z,101229.46
2018-12-17T03:29:42.954Z,101227.13
2018-12-17T03:32:10.525Z,101229.09
2018-12-17T03:34:38.132Z,101221.50
2018-12-17T03:37:05.981Z,101222.99
2018-12-17T03:39:33.555Z,101221.84
2018-12-17T03:42:01.207Z,101218.33
2018-12-17T03:44:28.813Z,101215.05
2018-12-17T03:46:56.401Z,101214.82
2018-12-17T03:49:23.999Z,101216.60
2018-12-17T03:51:51.659Z,101222.13
2018-12-17T03:54:19.221Z,101225.08
2018-12-17T03:56:46.838Z,101227.66
2018-12-17T03:59:14.766Z,101233.53
2018-12-17T04:01:42.359Z,101239.38
2018-12-17T04:04:09.902Z,101243.33
2018-12-17T04:06:37.508Z,101249.39
2018-12-17T04:09:06.521Z,101243.10
2018-12-17T04:11:34.055Z,101244.98
2018-12-17T04:14:02.062Z,101242.35
2018-12-17T04:16:29.627Z,101243.94
2018-12-17T04:18:57.210Z,101240.00
2018-12-17T04:21:24.751Z,101248.03
2018-12-17T04:23:52.392Z,101254.13
2018-12-17T04:26:19.969Z,101252.81
2018-12-17T04:28:47.967Z,101261.52
2018-12-17T04:31:15.503Z,101259.42
2018-12-17T04:33:43.087Z,101264.33
2018-12-17T04:36:10.705Z,101258.19
2018-12-17T04:38:38.275Z,101262.92
2018-12-17T04:41:05.844Z,101266.96
2018-12-17T04:43:33.397Z,101272.68
2018-12-17T04:46:01.083Z,101273.24
2018-12-17T04:48:28.934Z,101280.43
2018-12-17T04:50:56.562Z,101270.34
2018-12-17T04:53:24.148Z,101272.41
2018-12-17T04:55:51.750Z,101278.93
2018-12-17T04:58:19.589Z,101277.62
2018-12-17T05:00:47.167Z,101279.83
2018-12-17T05:03:14.805Z,101274.39
2018-12-17T05:05:42.383Z,101288.98
2018-12-17T05:08:09.978Z,101298.92
2018-12-17T05:10:37.574Z,101295.73
2018-12-17T05:13:05.136Z,101297.39
2018-12-17T05:15:32.783Z,101293.73
2018-12-17T05:18:00.533Z,101297.98
2018-12-17T05:20:28.171Z,101296.12
2018-12-17T05:22:55.745Z,101297.24
2018-12-17T05:25:23.344Z,101306.51
2018-12-17T05:27:50.910Z,101308.66
2018-12-17T05:30:18.516Z,101300.94
2018-12-17T05:32:46.099Z,101311.25
2018-12-17T05:35:13.796Z,101304.75
2018-12-17T05:37:41.405Z,101307.80
2018-12-17T05:40:09.113Z,101320.00
2018-12-17T05:42:37.292Z,101323.00
2018-12-17T05:45:05.593Z,101326.30
2018-12-17T05:47:33.150Z,101328.73
2018-12-17T05:50:00.765Z,101343.59
2018-12-17T05:52:28.367Z,101346.25
2018-12-17T05:54:55.957Z,101343.46
2018-12-17T05:57:23.537Z,101341.61
2018-12-17T05:59:51.115Z,101349.87
2018-12-17T06:02:18.720Z,101354.21
2018-12-17T06:04:46.319Z,101360.75
2018-12-17T06:07:13.924Z,101358.15
2018-12-17T06:09:41.626Z,101360.00
2018-12-17T06:12:09.254Z,101363.00
2018-12-17T06:14:36.864Z,101370.69
2018-12-17T06:17:04.484Z,101376.69
2018-12-17T06:19:32.365Z,101383.07
2018-12-17T06:21:59.986Z,101385.02
2018-12-17T06:24:27.662Z,101389.52
2018-12-17T06:26:55.307Z,101389.08
2018-12-17T06:29:22.907Z,101392.23
2018-12-17T06:31:50.530Z,101394.96
2018-12-17T06:34:18.236Z,101399.20
2018-12-17T06:36:45.872Z,101400.88
2018-12-17T06:39:14.829Z,101397.91
2018-12-17T06:41:42.585Z,101399.77
2018-12-17T06:44:10.208Z,101399.74
2018-12-17T06:46:37.866Z,101400.66
2018-12-17T06:49:05.455Z,101401.19
2018-12-17T06:51:33.351Z,101404.57
2018-12-17T06:54:01.302Z,101404.92
2018-12-17T06:56:28.915Z,101408.91
2018-12-17T06:58:56.537Z,101418.48
2018-12-17T07:01:24.114Z,101419.26
2018-12-17T07:03:51.708Z,101430.30
2018-12-17T07:06:19.243Z,101437.52
2018-12-17T07:08:46.859Z,101439.97
2018-12-17T07:11:14.538Z,101450.85
2018-12-17T07:13:42.115Z,101451.88
2018-12-17T07:16:09.829Z,101456.57
2018-12-17T07:18:37.732Z,101450.55
2018-12-17T07:21:05.271Z,101447.55
2018-12-17T07:23:32.867Z,101456.08
2018-12-17T07:26:00.440Z,101451.86
2018-12-17T07:28:28.043Z,101454.09
2018-12-17T07:30:55.673Z,101459.91
2018-12-17T07:33:23.319Z,101463.95
2018-12-17T07:35:50.950Z,101459.44
2018-12-17T07:38:18.611Z,101466.27
2018-12-17T07:40:46.249Z,101471.72
2018-12-17T07:43:13.808Z,101469.25
2018-12-17T07:45:41.398Z,101478.98
2018-12-17T07:48:08.964Z,101481.80
2018-12-17T07:50:36.514Z,101476.01
2018-12-17T07:53:04.143Z,101478.05
2018-12-17T07:55:31.681Z,101473.82
2018-12-17T07:57:59.269Z,101478.77
2018-12-17T08:00:26.850Z,101485.72
2018-12-17T08:02:54.416Z,101488.16
2018-12-17T08:05:22.025Z,101496.23
2018-12-17T08:07:49.563Z,101500.58
2018-12-17T08:10:17.512Z,101504.23
2018-12-17T08:12:45.074Z,101508.24
2018-12-17T08:15:12.679Z,101507.33
2018-12-17T08:17:40.260Z,101507.33
2018-12-17T08:20:07.946Z,101506.86
2018-12-17T08:22:35.661Z,101507.23
2018-12-17T08:25:03.610Z,101510.63
2018-12-17T08:27:31.204Z,101521.02
2018-12-17T08:30:03.933Z,101523.97
2018-12-17T08:32:28.740Z,101526.60
2018-12-17T08:34:56.399Z,101525.82
2018-12-17T08:37:24.068Z,101531.36
2018-12-17T08:39:51.675Z,101526.91
2018-12-17T08:42:19.236Z,101530.70
2018-12-17T08:44:46.817Z,101532.11
2018-12-17T08:47:14.403Z,101534.55
2018-12-17T08:49:41.986Z,101537.25
2018-12-17T08:52:09.611Z,101529.80
2018-12-17T08:54:37.151Z,101542.35
2018-12-17T08:57:04.952Z,101539.44
2018-12-17T08:59:32.747Z,101541.38
2018-12-17T09:02:00.290Z,101541.44
2018-12-17T09:04:27.936Z,101544.53
2018-12-17T09:06:55.494Z,101547.07
2018-12-17T09:09:23.094Z,101551.05
2018-12-17T09:11:50.660Z,101556.09
2018-12-17T09:14:18.511Z,101556.47
2018-12-17T09:16:46.170Z,101559.19
2018-12-17T09:19:13.764Z,101559.57
2018-12-17T09:21:41.669Z,101564.92
2018-12-17T09:24:09.401Z,101574.17
2018-12-17T09:26:36.981Z,101571.69
2018-12-17T09:29:04.638Z,101575.55
2018-12-17T09:31:32.241Z,101571.97
2018-12-17T09:33:59.850Z,101574.66
2018-12-17T09:36:27.427Z,101570.40
2018-12-17T09:38:54.980Z,101582.33
2018-12-17T09:41:22.609Z,101578.91
2018-12-17T09:43:50.195Z,101576.98
2018-12-17T09:46:17.868Z,101581.03
2018-12-17T09:48:45.587Z,101582.53
2018-12-17T09:51:19.356Z,101584.84
2018-12-17T09:53:43.263Z,101584.70
2018-12-17T09:56:10.844Z,101588.94
2018-12-17T09:58:38.438Z,101582.95
2018-12-17T10:01:06.228Z,101583.95
2018-12-17T10:03:33.910Z,101580.52
2018-12-17T10:06:01.490Z,101577.41
2018-12-17T10:08:29.110Z,101576.05
2018-12-17T10:10:56.692Z,101582.11
2018-12-17T10:13:24.708Z,101582.28
2018-12-17T10:15:52.297Z,101572.98
2018-12-17T10:18:19.909Z,101580.36
2018-12-17T10:20:47.550Z,101574.33
2018-12-17T10:23:15.126Z,101571.84
2018-12-17T10:25:42.769Z,101573.69
2018-12-17T10:28:10.330Z,101569.27
2018-12-17T10:30:37.978Z,101560.61
2018-12-17T10:33:05.671Z,101563.09
2018-12-17T10:35:33.310Z,101569.35
2018-12-17T10:38:00.891Z,101574.80
2018-12-17T10:40:28.765Z,101581.11
2018-12-17T10:42:56.356Z,101581.52
2018-12-17T10:45:24.069Z,101585.71
2018-12-17T10:47:51.688Z,101590.38
2018-12-17T10:50:19.281Z,101598.83
2018-12-17T10:52:46.875Z,101591.39
2018-12-17T10:55:14.428Z,101590.31
2018-12-17T10:57:42.123Z,101593.21
2018-12-17T11:00:13.219Z,101589.16
2018-12-17T11:02:40.844Z,101590.13
2018-12-17T11:05:10.473Z,101590.55
2018-12-17T11:07:38.036Z,101587.21
2018-12-17T11:10:06.589Z,101582.89
2018-12-17T11:12:34.142Z,101578.40
2018-12-17T11:15:01.803Z,101586.17
2018-12-17T11:17:29.400Z,101578.46
2018-12-17T11:19:57.008Z,101573.73
2018-12-17T11:22:24.664Z,101576.88
2018-12-17T11:24:52.256Z,101574.66
2018-12-17T11:27:19.932Z,101576.75
2018-12-17T11:29:47.510Z,101573.07
2018-12-17T11:32:15.989Z,101571.69
2018-12-17T11:34:43.597Z,101563.95
2018-12-17T11:37:11.205Z,101563.13
2018-12-17T11:39:38.771Z,101558.13
2018-12-17T11:42:06.409Z,101562.59
2018-12-17T11:44:34.016Z,101557.48
2018-12-17T11:47:01.629Z,101564.84
2018-12-17T11:49:29.245Z,101565.14
2018-12-17T11:51:56.801Z,101559.25
2018-12-17T11:54:24.416Z,101569.73
2018-12-17T11:59:58.693Z,101565.30
2018-12-17T12:02:26.647Z,101561.50
2018-12-17T12:04:54.302Z,101570.09
2018-12-17T12:07:21.872Z,101569.23
2018-12-17T12:09:49.461Z,101572.44
2018-12-17T12:12:17.121Z,101580.59
2018-12-17T12:14:44.717Z,101583.23
2018-12-17T12:17:12.279Z,101583.36
2018-12-17T12:19:39.827Z,101581.23
2018-12-17T12:22:07.798Z,101596.52
2018-12-17T12:24:35.648Z,101597.27
2018-12-17T12:27:03.269Z,101599.03
2018-12-17T12:29:30.860Z,101609.58
2018-12-17T12:31:58.477Z,101598.93
2018-12-17T12:34:26.258Z,101596.33
2018-12-17T12:36:53.887Z,101595.38
2018-12-17T12:39:21.457Z,101598.96
2018-12-17T12:41:49.053Z,101606.40
2018-12-17T12:44:16.621Z,101604.61
2018-12-17T12:46:44.188Z,101607.98
2018-12-17T12:49:11.772Z,101617.86
2018-12-17T12:51:39.344Z,101624.34
2018-12-17T12:54:06.965Z,101627.11
2018-12-17T12:56:34.510Z,101618.42
2018-12-17T12:59:02.066Z,101612.91
2018-12-17T13:01:29.695Z,101619.07
2018-12-17T13:03:57.346Z,101615.86
2018-12-17T13:06:24.891Z,101612.08
2018-12-17T13:08:52.542Z,101604.47
2018-12-17T13:11:20.129Z,101610.31
2018-12-17T13:13:47.740Z,101616.49
2018-12-17T13:16:15.332Z,101616.87
2018-12-17T13:18:43.043Z,101617.75
2018-12-17T13:21:10.658Z,101632.22
2018-12-17T13:23:38.660Z,101630.67
2018-12-17T13:26:06.534Z,101638.81
2018-12-17T13:28:34.259Z,101632.73
2018-12-17T13:31:01.875Z,101633.41
2018-12-17T13:33:29.500Z,101627.56
2018-12-17T13:35:57.087Z,101629.25
2018-12-17T13:38:25.044Z,101637.20
2018-12-17T13:40:52.611Z,101635.73
2018-12-17T13:43:20.951Z,101640.88
2018-12-17T13:45:48.526Z,101642.27
2018-12-17T13:48:16.210Z,101648.86
2018-12-17T13:50:43.831Z,101652.92
2018-12-17T13:53:17.361Z,101648.79
2018-12-17T13:55:45.042Z,101651.42
2018-12-17T13:58:12.685Z,101662.05
2018-12-17T14:00:40.493Z,101663.19
2018-12-17T14:03:08.425Z,101667.52
2018-12-17T14:05:36.071Z,101663.30
2018-12-17T14:08:03.625Z,101670.91
2018-12-17T14:10:51.051Z,101673.68
2018-12-17T14:13:18.813Z,101670.91
2018-12-17T14:15:51.963Z,101686.08
2018-12-17T14:18:25.891Z,101684.28
2018-12-17T14:23:56.273Z,101684.15
2018-12-17T14:26:23.892Z,101691.78
2018-12-17T14:28:51.534Z,101692.21
2018-12-17T14:31:19.259Z,101697.11
2018-12-17T14:33:49.590Z,101703.42
2018-12-17T14:36:17.444Z,101708.70
2018-12-17T14:38:45.014Z,101704.27
2018-12-17T14:41:12.672Z,101707.75
2018-12-17T14:43:40.269Z,101710.02
2018-12-17T14:46:08.040Z,101715.05
2018-12-17T14:48:35.890Z,101711.29
2018-12-17T14:51:03.533Z,101707.09
2018-12-17T14:53:31.106Z,101710.81
2018-12-17T14:55:58.804Z,101718.35
2018-12-17T14:58:26.361Z,101717.83
2018-12-17T15:00:53.978Z,101720.84
2018-12-17T15:03:21.571Z,101729.50
2018-12-17T15:05:49.238Z,101728.70
2018-12-17T15:08:16.846Z,101721.08
2018-12-17T15:10:44.515Z,101727.48
2018-12-17T15:13:12.213Z,101728.33
2018-12-17T15:15:39.779Z,101725.17
2018-12-17T15:18:07.523Z,101723.84
2018-12-17T15:20:35.154Z,101735.48
2018-12-17T15:23:02.748Z,101731.61
2018-12-17T15:25:30.551Z,101741.55
2018-12-17T15:27:58.207Z,101740.94
2018-12-17T15:30:25.988Z,101738.13
2018-12-17T15:32:53.739Z,101742.49
2018-12-17T15:35:21.562Z,101748.52
2018-12-17T15:37:49.193Z,101755.58
2018-12-17T15:40:16.752Z,101749.46
2018-12-17T15:42:44.366Z,101762.64
2018-12-17T15:45:12.260Z,101752.56
2018-12-17T15:47:39.854Z,101757.89
2018-12-17T15:50:08.141Z,101767.72
2018-12-17T15:52:35.793Z,101768.28
2018-12-17T15:55:04.074Z,101777.19
2018-12-17T15:57:31.623Z,101776.72
2018-12-17T15:59:59.230Z,101782.09
2018-12-17T16:02:26.828Z,101783.41
2018-12-17T16:04:54.432Z,101787.27
2018-12-17T16:07:22.840Z,101789.48
2018-12-17T16:09:52.566Z,101793.24
2018-12-17T16:12:20.354Z,101786.08
2018-12-17T16:14:47.929Z,101785.86
2018-12-17T16:17:15.607Z,101790.47
2018-12-17T16:19:43.226Z,101786.88
2018-12-17T16:22:10.799Z,101788.08
2018-12-17T16:24:38.495Z,101792.03
2018-12-17T16:27:06.210Z,101792.78
2018-12-17T16:29:33.855Z,101794.00
2018-12-17T16:32:01.628Z,101793.42
2018-12-17T16:34:29.307Z,101795.69
2018-12-17T16:36:57.101Z,101798.23
2018-12-17T16:39:24.891Z,101802.90
2018-12-17T16:41:52.548Z,101801.28
2018-12-17T16:44:20.155Z,101796.58
2018-12-17T16:46:47.769Z,101794.47
2018-12-17T16:49:15.384Z,101805.02
2018-12-17T16:51:42.952Z,101803.18
2018-12-17T16:54:10.597Z,101808.59
2018-12-17T16:56:39.112Z,101808.65
2018-12-17T16:59:07.656Z,101813.63
2018-12-17T17:01:35.306Z,101818.62
2018-12-17T17:04:02.899Z,101817.21
2018-12-17T17:06:30.584Z,101820.00
2018-12-17T17:08:58.961Z,101813.20
2018-12-17T17:11:26.721Z,101818.29
2018-12-17T17:13:54.310Z,101818.62
2018-12-17T17:16:21.944Z,101822.02
2018-12-17T17:18:49.633Z,101822.20
2018-12-17T17:21:18.477Z,101825.55
2018-12-17T17:23:46.190Z,101826.02
2018-12-17T17:26:13.799Z,101832.46
2018-12-17T17:28:41.397Z,101834.35
2018-12-17T17:31:09.451Z,101834.73
2018-12-17T17:33:37.017Z,101837.97
2018-12-17T17:36:04.647Z,101845.52
2018-12-17T17:38:32.336Z,101851.73
2018-12-17T17:41:00.028Z,101846.92
2018-12-17T17:43:27.652Z,101847.67
2018-12-17T17:45:55.246Z,101862.86
2018-12-17T17:48:22.822Z,101864.75
2018-12-17T17:53:24.375Z,101865.13
2018-12-17T17:55:52.326Z,101870.02
2018-12-17T17:58:19.898Z,101873.83
2018-12-17T18:00:47.606Z,101871.56
2018-12-17T18:03:15.202Z,101873.73
2018-12-17T18:05:42.776Z,101884.11
2018-12-17T18:08:10.372Z,101878.83
2018-12-17T18:10:38.220Z,101881.94
2018-12-17T18:13:06.274Z,101881.94
2018-12-17T18:15:33.822Z,101885.61
2018-12-17T18:18:01.933Z,101890.31
2018-12-17T18:20:29.589Z,101887.55
2018-12-17T18:22:57.279Z,101891.03
2018-12-17T18:25:25.012Z,101890.94
2018-12-17T18:27:52.599Z,101895.27
2018-12-17T18:30:20.239Z,101897.34
2018-12-17T18:32:47.879Z,101891.27
2018-12-17T18:35:15.508Z,101892.91
2018-12-17T18:37:43.464Z,101893.85
2018-12-17T18:40:11.049Z,101894.23
2018-12-17T18:42:38.751Z,101898.05
2018-12-17T18:45:08.356Z,101902.23
2018-12-17T18:47:35.973Z,101899.23
2018-12-17T18:50:04.352Z,101901.39
2018-12-17T18:52:31.979Z,101906.34
2018-12-17T18:54:59.660Z,101909.41
2018-12-17T18:57:27.289Z,101905.77
2018-12-17T18:59:54.849Z,101913.21
2018-12-17T19:02:22.517Z,101917.73
2018-12-17T19:04:50.152Z,101909.82
2018-12-17T19:07:17.771Z,101912.98
2018-12-17T19:09:45.386Z,101908.83
2018-12-17T19:12:12.974Z,101905.97
2018-12-17T19:14:41.034Z,101917.84
2018-12-17T19:17:08.647Z,101915.68
2018-12-17T19:19:36.309Z,101920.48
2018-12-17T19:22:04.022Z,101923.12
2018-12-17T19:24:31.615Z,101921.80
2018-12-17T19:26:59.253Z,101927.55
2018-12-17T19:29:26.879Z,101933.67
2018-12-17T19:31:55.083Z,101941.40
2018-12-17T19:34:22.717Z,101942.88
2018-12-17T19:36:50.325Z,101941.92
2018-12-17T19:39:17.913Z,101941.50
2018-12-17T19:41:45.627Z,101939.99
2018-12-17T19:44:13.458Z,101937.55
2018-12-17T19:46:41.057Z,101939.72
2018-12-17T19:49:09.042Z,101938.15
2018-12-17T19:51:36.623Z,101943.80
2018-12-17T19:54:04.235Z,101941.03
2018-12-17T19:56:31.895Z,101938.15
2018-12-17T19:58:59.549Z,101938.81
2018-12-17T20:01:27.126Z,101942.67
2018-12-17T20:03:54.729Z,101946.06
2018-12-17T20:06:22.368Z,101946.69
2018-12-17T20:08:50.047Z,101947.39
2018-12-17T20:11:17.724Z,101952.48
2018-12-17T20:13:45.349Z,101953.42
2018-12-17T20:16:12.966Z,101954.17
2018-12-17T20:18:40.588Z,101955.30
2018-12-17T20:21:08.216Z,101947.95
2018-12-17T20:23:36.224Z,101956.72
2018-12-17T20:26:04.269Z,101952.48
2018-12-17T20:28:32.661Z,101958.98
2018-12-17T20:31:00.444Z,101956.81
2018-12-17T20:33:28.056Z,101952.80
2018-12-17T20:35:55.822Z,101951.01
2018-12-17T20:38:23.744Z,101946.48
2018-12-17T20:40:54.490Z,101951.39
2018-12-17T20:43:22.210Z,101949.88
2018-12-17T20:45:50.059Z,101954.78
2018-12-17T20:48:17.678Z,101957.42
2018-12-17T20:50:45.289Z,101955.53
2018-12-17T20:53:13.167Z,101958.70
2018-12-17T20:55:40.865Z,101957.76
2018-12-17T20:58:08.443Z,101959.27
2018-12-17T21:00:36.105Z,101958.13
2018-12-17T21:03:03.842Z,101961.34
2018-12-17T21:05:31.441Z,101958.36
2018-12-17T21:07:59.200Z,101956.58
2018-12-17T21:10:26.870Z,101959.12
2018-12-17T21:12:54.818Z,101962.41
2018-12-17T21:15:22.448Z,101962.89
2018-12-17T21:17:50.021Z,101960.81
2018-12-17T21:20:17.617Z,101951.20
2018-12-17T21:22:45.229Z,101950.91
2018-12-17T21:25:12.878Z,101957.19
2018-12-17T21:27:40.425Z,101948.28
2018-12-17T21:30:09.135Z,101955.72
2018-12-17T21:32:36.885Z,101957.38
2018-12-17T21:35:05.621Z,101956.81
2018-12-17T21:37:33.267Z,101962.28
2018-12-17T21:40:01.256Z,101966.39
2018-12-17T21:42:29.137Z,101967.61
2018-12-17T21:44:56.691Z,101969.17
2018-12-17T21:47:24.346Z,101972.41
2018-12-17T21:49:51.901Z,101975.43
2018-12-17T21:52:19.511Z,101978.64
2018-12-17T21:54:47.646Z,101981.91
2018-12-17T21:57:15.614Z,101985.61
2018-12-17T21:59:43.315Z,101985.23
2018-12-17T22:02:11.817Z,101990.61
2018-12-17T22:04:39.437Z,101987.13
2018-12-17T22:07:07.022Z,101993.63
2018-12-17T22:09:34.661Z,101992.11
2018-12-17T22:12:02.253Z,101991.98
2018-12-17T22:14:29.885Z,101988.25
2018-12-17T22:16:59.594Z,101988.92
2018-12-17T22:19:27.515Z,101991.56
2018-12-17T22:21:55.086Z,101989.20
2018-12-17T22:24:22.972Z,101991.36
2018-12-17T22:26:50.843Z,101994.38
2018-12-17T22:29:18.797Z,102002.77
2018-12-17T22:31:46.526Z,101996.64
2018-12-17T22:34:14.164Z,101997.49
2018-12-17T22:36:41.712Z,102000.03
2018-12-17T22:39:09.320Z,102003.62
2018-12-17T22:41:37.229Z,101999.28
2018-12-17T22:44:04.799Z,101995.52
2018-12-17T22:46:32.389Z,101994.48
2018-12-17T22:48:59.973Z,101995.89
2018-12-17T22:51:27.545Z,101995.84
2018-12-17T22:53:55.142Z,101994.05
2018-12-17T22:56:22.684Z,101989.58
2018-12-17T22:58:53.350Z,101980.53
2018-12-17T23:01:39.065Z,101982.31
2018-12-17T23:04:07.498Z,101979.58
2018-12-17T23:06:35.099Z,101984.70
2018-12-17T23:09:06.425Z,101981.22
2018-12-17T23:11:51.733Z,101982.27
2018-12-17T23:14:31.130Z,101983.48
2018-12-17T23:17:10.865Z,101982.64
2018-12-17T23:19:42.631Z,101982.36
2018-12-17T23:22:11.065Z,101980.38
2018-12-17T23:24:38.822Z,101981.98
2018-12-17T23:27:06.837Z,101973.81
2018-12-17T23:29:34.806Z,101979.94
2018-12-17T23:32:02.417Z,101975.89
2018-12-17T23:34:30.331Z,101980.23
2018-12-17T23:36:57.952Z,101979.28
2018-12-17T23:39:25.520Z,101982.02
2018-12-17T23:41:53.114Z,101977.59
2018-12-17T23:44:20.698Z,101978.91
2018-12-17T23:46:48.661Z,101980.80
2018-12-17T23:49:16.263Z,101983.66
2018-12-17T23:51:43.855Z,101977.69
2018-12-17T23:54:11.499Z,101981.48
2018-12-17T23:56:39.148Z,101976.88
2018-12-17T23:59:06.981Z,101983.84
